LIBDLIBP

Guest
Details From LIBD - Bari Palese Macchie
To LIBP - PESCARA
Flight Number -
Tags decoded
Created
Modified
Stats Distance 146 nm / 269 km
Max Altitude 0 ft / 0 m
Waypoints 4
Social Downloads 2
Likes 0
Share VATSIM

Download

Looking for another format? Having issues loading an existing format? Contact us
Advertisement - Login to hide

Notes

Requested: LIBD VIE UQ920 PES LIBP Unmatched points: UQ920

Route

LIBD VIE PES LIBP

ID Type Via Altitude Latitude Longitude Leg Dist Tot Dist Heading (true) Name
O LIBD APT - 0 ft / 0 m 41.13787˚ 16.75832˚ - 0 nm - Bari Palese Macchie
VIE VOR - 0 ft / 0 m 41.91274˚ 16.04914˚ 56 nm 56 nm 326° / 325° VIESTE VOR-DME
PES NDB - 0 ft / 0 m 42.43631˚ 14.18347˚ 88 nm 145 nm 291° / 290° PESCARA NDB
O LIBP APT - 0 ft / 0 m 42.43126˚ 14.18303˚ 0 nm 145 nm 184° / 184° PESCARA

Altitude Profile

Advertisement - Login to hide

LIBD

Details ICAO LIBD (BRI)
Name Bari Palese Macchie
Region Italy
Timezone Europe/Rome (UTC+1.0)
Stats Elevation 177 ft / 54 m (AMSL)
Location 41.137865° 16.758318°
Runways 1
Magnetic Variation 3.738° E

METAR

LIBD 171350Z 30018KT 9999 SCT040 09/04 Q1011

Decode

TAF

TAF LIBD 171100Z 1712/1812 30015G28KT 9999 SCT030 TEMPO 1715/1724 RA= TAF LIBP 171100Z 1712/1812 34010KT 9999 SCT030

Decode

Departure Runways

ID Width Length Bearing (true) Bearing (mag) Surface Threshold Offset Overrun Length
07 148 ft / 45 m 9,262 ft / 2,823 m 69.39° 65.65° Asphalt 1,257 ft / 383 m 0 ft / 0 m
25 148 ft / 45 m 9,262 ft / 2,823 m 249.42° 245.68° Asphalt 0 ft / 0 m 194 ft / 59 m

LIBP

Details ICAO LIBP (PSR)
Name PESCARA
Region Italy
Timezone Europe/Rome (UTC+1.0)
Stats Elevation 48 ft / 15 m (AMSL)
Location 42.431257° 14.183030°
Runways 1
Magnetic Variation 3.382° E

METAR

LIBP 171350Z 29009KT 9999 SCT050 BKN080 07/03 Q1016

Decode

TAF

TAF LIBP 171100Z 1712/1812 34010KT 9999 SCT030

Decode

Destination Runways

ID Width Length Bearing (true) Bearing (mag) Surface Threshold Offset Overrun Length
04 148 ft / 45 m 7,943 ft / 2,421 m 37.19° 33.81° Asphalt 344 ft / 105 m 0 ft / 0 m
22 148 ft / 45 m 7,943 ft / 2,421 m 217.21° 213.83° Asphalt 617 ft / 188 m 0 ft / 0 m

Approach Navaids

Runway Type Ident Frequency Range Bearing (true) Bearing (mag) Slope Elevation
22 Localiser IPS 110.70 MHz 18 nm / 33 km 217.39° 214.01° - 48 ft / 15 m (AMSL)
22 Glidescope IPS 110.70 MHz 10 nm / 19 km 217.20° 213.82° 3.00° 48 ft / 15 m (AMSL)
22 DME IPS 110.70 MHz 18 nm / 33 km - - - 48 ft / 15 m (AMSL)

Popular Alternatives